Time;durP1;ratioP1;P1;durP2;ratioP2;P2;SDS_P1;SDS_P2;PMS_P1;PMS_P2;Temp;Humidity;BMP_temperature;BMP_pressure;BME280_temperature;BME280_humidity;BME280_pressure;Samples;Min_cycle;Max_cycle;Signal;HPM_P1;HPM_P2
2021/11/21 00:00:30;;;;;;;48.80;21.80;;;7.70;92.50;;;;;;5077655;28;20437;-74
2021/11/21 00:02:57;;;;;;;42.67;20.58;;;7.70;92.40;;;;;;5077534;28;20479;-74
2021/11/21 00:05:23;;;;;;;43.13;20.05;;;7.70;92.30;;;;;;5077914;28;20024;-74
2021/11/21 00:07:49;;;;;;;46.15;18.77;;;7.70;92.20;;;;;;5077738;28;20033;-74
2021/11/21 00:10:15;;;;;;;40.88;19.85;;;7.70;92.30;;;;;;5076693;28;20013;-74
2021/11/21 00:12:40;;;;;;;45.60;20.15;;;7.70;92.60;;;;;;5077314;28;20499;-74
2021/11/21 00:15:08;;;;;;;46.10;19.55;;;7.70;92.70;;;;;;5077122;28;20048;-74
2021/11/21 00:17:34;;;;;;;37.95;19.58;;;7.70;92.50;;;;;;5077462;28;20021;-74
2021/11/21 00:20:00;;;;;;;42.42;18.10;;;7.70;92.40;;;;;;5077567;28;20031;-74
2021/11/21 00:22:26;;;;;;;41.85;18.33;;;7.70;92.10;;;;;;5077291;28;20454;-74
2021/11/21 00:24:52;;;;;;;36.95;17.23;;;7.70;91.80;;;;;;5077483;28;20076;-74
2021/11/21 00:27:19;;;;;;;37.33;16.70;;;7.70;91.60;;;;;;5077238;28;20438;-74
2021/11/21 00:29:44;;;;;;;40.15;18.33;;;7.70;91.70;;;;;;5077244;28;20052;-74
2021/11/21 00:32:10;;;;;;;36.30;18.08;;;7.70;91.50;;;;;;5077086;28;20036;-74
2021/11/21 00:34:36;;;;;;;35.95;16.58;;;7.70;91.40;;;;;;5075848;28;20036;-75
2021/11/21 00:37:02;;;;;;;37.80;18.13;;;7.70;91.20;;;;;;5075229;28;20052;-74
2021/11/21 00:39:28;;;;;;;41.35;19.40;;;7.70;91.10;;;;;;5065759;28;20012;-74
2021/11/21 00:41:55;;;;;;;37.25;18.15;;;7.70;91.10;;;;;;5077220;28;20108;-74
2021/11/21 00:44:22;;;;;;;39.05;17.60;;;7.70;91.00;;;;;;5076933;28;20020;-74
2021/11/21 00:46:48;;;;;;;38.35;19.40;;;7.70;91.00;;;;;;5077279;28;20090;-74
2021/11/21 00:49:16;;;;;;;36.30;17.33;;;7.70;91.00;;;;;;5077159;28;20032;-74
2021/11/21 00:51:43;;;;;;;34.22;17.25;;;7.70;90.90;;;;;;5077168;28;20025;-74
2021/11/21 00:54:23;;;;;;;34.80;17.33;;;7.70;90.90;;;;;;5076905;28;20380;-74
2021/11/21 00:56:50;;;;;;;34.00;16.77;;;7.70;90.90;;;;;;5077077;28;20475;-74
2021/11/21 00:59:22;;;;;;;47.45;20.48;;;7.80;90.90;;;;;;5076995;28;20027;-74
2021/11/21 01:01:49;;;;;;;54.08;21.23;;;7.80;90.80;;;;;;5076974;28;20016;-74
2021/11/21 01:04:16;;;;;;;40.95;19.63;;;7.70;90.70;;;;;;5081034;28;20423;-74
2021/11/21 01:06:42;;;;;;;35.05;17.42;;;7.80;90.80;;;;;;5081017;28;20031;-74
2021/11/21 01:09:08;;;;;;;36.72;17.25;;;7.70;90.70;;;;;;5080905;28;20020;-74
2021/11/21 01:11:35;;;;;;;35.47;17.38;;;7.80;90.70;;;;;;5079731;28;20099;-75
2021/11/21 01:14:01;;;;;;;45.63;20.23;;;7.80;90.70;;;;;;5080649;28;20107;-75
2021/11/21 01:16:26;;;;;;;41.45;19.05;;;7.80;90.60;;;;;;5080755;28;20055;-75
2021/11/21 01:18:52;;;;;;;35.55;18.50;;;7.80;90.60;;;;;;5080875;28;20545;-75
2021/11/21 01:21:18;;;;;;;43.28;18.33;;;7.80;90.60;;;;;;5067635;28;20031;-74
2021/11/21 01:23:45;;;;;;;44.25;18.40;;;7.80;90.60;;;;;;5079103;28;20020;-74
2021/11/21 01:26:11;;;;;;;43.97;21.30;;;7.80;90.60;;;;;;5080792;28;20032;-74
2021/11/21 01:28:37;;;;;;;46.03;20.27;;;7.80;90.60;;;;;;5080190;28;20017;-74
2021/11/21 01:31:03;;;;;;;43.28;19.42;;;7.80;90.60;;;;;;5080688;28;20056;-74
2021/11/21 01:33:29;;;;;;;38.70;17.60;;;7.80;90.60;;;;;;5080487;28;20025;-74
2021/11/21 01:35:55;;;;;;;31.95;16.73;;;7.80;90.60;;;;;;5080523;28;20426;-74
2021/11/21 01:38:21;;;;;;;36.53;16.92;;;7.90;90.60;;;;;;5067466;28;20040;-74
2021/11/21 01:40:48;;;;;;;34.50;16.90;;;7.80;90.80;;;;;;5079621;28;20029;-74
2021/11/21 01:43:14;;;;;;;35.28;18.33;;;7.90;91.10;;;;;;5080045;28;20487;-74
2021/11/21 01:45:39;;;;;;;33.58;16.50;;;7.90;91.40;;;;;;5080117;28;20051;-74
2021/11/21 01:48:05;;;;;;;33.58;15.60;;;7.90;91.50;;;;;;5080359;28;20028;-74
2021/11/21 01:50:37;;;;;;;34.05;15.50;;;7.90;91.30;;;;;;5080166;28;20028;-74
2021/11/21 01:53:04;;;;;;;33.38;16.60;;;7.90;91.30;;;;;;5080015;28;20016;-74
2021/11/21 01:55:31;;;;;;;29.85;15.15;;;7.90;91.20;;;;;;5080124;28;20033;-74
2021/11/21 01:57:58;;;;;;;36.13;17.98;;;7.90;91.00;;;;;;5079843;28;20065;-74
2021/11/21 02:00:26;;;;;;;35.47;15.82;;;7.90;91.20;;;;;;5080023;28;20024;-74
2021/11/21 02:02:52;;;;;;;35.72;17.42;;;7.90;91.20;;;;;;5079763;28;20033;-74
2021/11/21 02:05:18;;;;;;;35.63;16.70;;;7.90;91.40;;;;;;5080154;28;20029;-74
2021/11/21 02:07:46;;;;;;;31.58;15.93;;;7.90;91.70;;;;;;5079915;28;20028;-74
2021/11/21 02:10:15;;;;;;;33.05;16.45;;;7.90;91.80;;;;;;5079271;28;20470;-74
2021/11/21 02:12:42;;;;;;;35.20;17.83;;;7.90;92.10;;;;;;5075506;28;20048;-73
2021/11/21 02:15:10;;;;;;;37.35;18.08;;;7.90;92.20;;;;;;5079346;28;20029;-74
2021/11/21 02:17:37;;;;;;;37.47;17.13;;;7.90;92.20;;;;;;5079644;28;20024;-73
2021/11/21 02:20:05;;;;;;;32.42;17.00;;;7.90;92.10;;;;;;5079669;28;20033;-74
2021/11/21 02:22:31;;;;;;;40.55;16.92;;;7.90;92.10;;;;;;5079427;28;20017;-74
2021/11/21 02:24:57;;;;;;;38.80;18.60;;;7.90;92.00;;;;;;5079509;28;20486;-74
2021/11/21 02:27:27;;;;;;;36.08;18.60;;;7.90;92.20;;;;;;5079349;28;20564;-73
2021/11/21 02:29:54;;;;;;;35.72;17.38;;;7.90;92.40;;;;;;5079308;28;20078;-73
2021/11/21 02:32:20;;;;;;;38.33;18.60;;;7.90;92.10;;;;;;5079287;28;20028;-74
2021/11/21 02:34:46;;;;;;;34.63;17.05;;;7.90;92.10;;;;;;5079292;28;20020;-74
2021/11/21 02:37:12;;;;;;;36.05;17.70;;;7.80;92.10;;;;;;5075859;28;20095;-74
2021/11/21 02:39:39;;;;;;;34.25;18.65;;;7.90;92.30;;;;;;5084575;28;20025;-73
2021/11/21 02:42:06;;;;;;;35.38;17.60;;;7.80;92.10;;;;;;5077758;28;20021;-73
2021/11/21 02:44:32;;;;;;;33.70;17.58;;;7.90;92.00;;;;;;5079066;28;20472;-74
2021/11/21 02:46:59;;;;;;;37.60;18.92;;;7.90;92.30;;;;;;5077729;28;20029;-73
2021/11/21 02:49:25;;;;;;;36.53;18.10;;;7.90;92.40;;;;;;5079298;28;20024;-73
2021/11/21 02:51:50;;;;;;;32.58;16.02;;;7.90;92.40;;;;;;5078953;28;20038;-73
2021/11/21 02:54:16;;;;;;;34.25;16.85;;;7.90;92.50;;;;;;5078759;28;20028;-73
2021/11/21 02:56:42;;;;;;;32.97;17.13;;;7.90;92.40;;;;;;5078908;28;20479;-73
2021/11/21 02:59:08;;;;;;;34.35;16.38;;;7.90;92.20;;;;;;5078714;28;20472;-73
2021/11/21 03:01:34;;;;;;;30.77;16.48;;;7.90;92.20;;;;;;5078798;28;20032;-73
2021/11/21 03:04:00;;;;;;;32.08;16.02;;;7.90;92.20;;;;;;5078715;28;20099;-73
2021/11/21 03:06:28;;;;;;;28.45;15.35;;;7.80;92.00;;;;;;5077269;28;20067;-73
2021/11/21 03:08:55;;;;;;;29.15;15.23;;;7.80;92.00;;;;;;5078671;28;20025;-73
2021/11/21 03:11:31;;;;;;;25.60;14.90;;;7.80;91.90;;;;;;5077408;28;20414;-73
2021/11/21 03:13:59;;;;;;;26.25;13.82;;;7.80;91.70;;;;;;5078098;28;20028;-73
2021/11/21 03:16:25;;;;;;;25.17;14.75;;;7.80;91.50;;;;;;5078605;28;20054;-73
2021/11/21 03:18:51;;;;;;;24.73;13.40;;;7.70;91.30;;;;;;5078400;28;20052;-73
2021/11/21 03:21:17;;;;;;;22.77;12.30;;;7.70;91.20;;;;;;5078723;28;20051;-74
2021/11/21 03:23:43;;;;;;;23.40;12.20;;;7.60;91.10;;;;;;5078104;28;20025;-73
2021/11/21 03:26:10;;;;;;;22.00;11.82;;;7.60;91.10;;;;;;5077647;28;20119;-73
2021/11/21 03:28:35;;;;;;;21.40;12.15;;;7.60;91.00;;;;;;5078061;28;20021;-74
2021/11/21 03:31:02;;;;;;;23.08;12.93;;;7.50;90.90;;;;;;5078393;28;20076;-73
2021/11/21 03:33:29;;;;;;;23.15;12.70;;;7.50;91.00;;;;;;5078076;28;20028;-73
2021/11/21 03:35:54;;;;;;;21.63;12.07;;;7.50;91.00;;;;;;5078223;28;20479;-73
2021/11/21 03:38:20;;;;;;;22.95;12.38;;;7.50;91.10;;;;;;5065475;28;20134;-73
2021/11/21 03:40:46;;;;;;;22.23;11.68;;;7.60;91.30;;;;;;5077035;28;20495;-73
2021/11/21 03:43:12;;;;;;;21.40;12.20;;;7.60;91.20;;;;;;5077817;28;20076;-73
2021/11/21 03:45:38;;;;;;;23.38;12.98;;;7.60;91.10;;;;;;5077857;28;20028;-73
2021/11/21 03:48:04;;;;;;;23.58;12.00;;;7.60;91.30;;;;;;5078048;28;20487;-73
2021/11/21 03:50:30;;;;;;;21.45;10.93;;;7.60;91.50;;;;;;5077752;28;20449;-73
2021/11/21 03:52:56;;;;;;;22.13;12.23;;;7.70;91.60;;;;;;5077993;28;20035;-73
2021/11/21 03:55:22;;;;;;;22.60;13.02;;;7.70;92.10;;;;;;5077473;28;20032;-73
2021/11/21 03:57:48;;;;;;;21.27;11.77;;;7.70;92.20;;;;;;5077876;28;20074;-73
2021/11/21 04:00:21;;;;;;;21.50;11.70;;;7.70;92.30;;;;;;5077607;28;20028;-73
2021/11/21 04:02:48;;;;;;;25.25;12.85;;;7.70;92.30;;;;;;5077601;28;20021;-73
2021/11/21 04:05:16;;;;;;;28.08;13.30;;;7.70;92.30;;;;;;5077853;28;20028;-72
2021/11/21 04:07:42;;;;;;;28.10;13.93;;;7.70;92.30;;;;;;5077582;28;20031;-73
2021/11/21 04:10:09;;;;;;;34.65;16.60;;;7.70;92.70;;;;;;5077745;28;20039;-73
2021/11/21 04:12:35;;;;;;;30.35;14.23;;;7.80;93.00;;;;;;5076687;28;20063;-73
2021/11/21 04:15:02;;;;;;;27.60;14.82;;;7.80;93.20;;;;;;5077471;28;20032;-73
2021/11/21 04:17:28;;;;;;;28.65;13.02;;;7.80;93.30;;;;;;5077431;28;20430;-73
2021/11/21 04:19:54;;;;;;;30.52;15.27;;;7.80;93.30;;;;;;5077424;28;20479;-73
2021/11/21 04:22:20;;;;;;;27.83;13.88;;;7.80;93.40;;;;;;5077380;28;20059;-73
2021/11/21 04:24:46;;;;;;;31.38;14.40;;;7.80;93.40;;;;;;5077530;28;20029;-73
2021/11/21 04:27:12;;;;;;;29.35;14.70;;;7.80;93.40;;;;;;5077265;28;20020;-73
2021/11/21 04:29:38;;;;;;;30.20;14.82;;;7.80;93.40;;;;;;5077379;28;20082;-73
2021/11/21 04:32:05;;;;;;;31.63;15.32;;;7.80;93.40;;;;;;5077120;28;20020;-73
2021/11/21 04:34:31;;;;;;;35.22;17.35;;;7.80;93.70;;;;;;5076339;28;20032;-73
2021/11/21 04:37:00;;;;;;;29.52;13.77;;;7.80;93.80;;;;;;5074301;28;20053;-73
2021/11/21 04:39:30;;;;;;;28.92;16.65;;;7.80;93.80;;;;;;5065689;28;20026;-73
2021/11/21 04:41:56;;;;;;;28.55;14.65;;;7.80;93.90;;;;;;5077172;28;20025;-73
2021/11/21 04:44:24;;;;;;;28.73;14.23;;;7.80;94.00;;;;;;5077127;28;20088;-73
2021/11/21 04:46:50;;;;;;;27.98;14.15;;;7.80;94.00;;;;;;5077209;28;20036;-73
2021/11/21 04:49:16;;;;;;;29.27;14.68;;;7.80;94.30;;;;;;5077360;28;20021;-73
2021/11/21 04:51:42;;;;;;;27.73;14.55;;;7.80;94.00;;;;;;5077107;28;20544;-73
2021/11/21 04:54:15;;;;;;;25.90;14.20;;;7.80;94.00;;;;;;5077132;28;20020;-73
2021/11/21 04:56:44;;;;;;;26.33;12.80;;;7.80;93.90;;;;;;5077056;28;20025;-73
2021/11/21 04:59:10;;;;;;;25.00;13.30;;;7.80;93.70;;;;;;5076824;28;20675;-73
2021/11/21 05:01:36;;;;;;;21.40;11.90;;;7.90;93.70;;;;;;5076984;28;20114;-73
2021/11/21 05:04:02;;;;;;;23.33;12.02;;;7.90;93.60;;;;;;5077108;28;20116;-73
2021/11/21 05:06:28;;;;;;;20.23;10.82;;;7.90;93.50;;;;;;5076960;28;20060;-73
2021/11/21 05:08:53;;;;;;;24.75;13.65;;;7.90;93.20;;;;;;5076857;28;20029;-73
2021/11/21 05:11:19;;;;;;;24.00;13.25;;;7.90;93.40;;;;;;5075817;28;20441;-73
2021/11/21 05:13:45;;;;;;;23.92;14.10;;;7.90;93.60;;;;;;5076668;28;20021;-74
2021/11/21 05:16:11;;;;;;;25.80;14.02;;;8.00;93.80;;;;;;5076760;28;20040;-73
2021/11/21 05:18:36;;;;;;;26.33;13.60;;;8.00;94.10;;;;;;5077114;28;20108;-73
2021/11/21 05:21:02;;;;;;;24.42;13.10;;;8.00;94.10;;;;;;5076811;28;20020;-74
2021/11/21 05:23:28;;;;;;;26.20;14.00;;;8.00;94.00;;;;;;5076848;28;20568;-74
2021/11/21 05:25:54;;;;;;;25.25;13.30;;;8.00;94.10;;;;;;5076636;28;20037;-74
2021/11/21 05:28:20;;;;;;;23.30;11.80;;;8.00;94.40;;;;;;5076505;28;20028;-74
2021/11/21 05:30:48;;;;;;;23.40;12.85;;;8.00;94.60;;;;;;5076761;28;20451;-74
2021/11/21 05:33:15;;;;;;;23.23;12.27;;;8.00;94.50;;;;;;5076828;28;20104;-74
2021/11/21 05:35:41;;;;;;;22.00;12.63;;;8.00;94.30;;;;;;5075305;28;20056;-74
2021/11/21 05:38:07;;;;;;;26.27;12.38;;;8.00;94.20;;;;;;5065806;28;20049;-74
2021/11/21 05:40:33;;;;;;;23.60;12.80;;;8.00;94.50;;;;;;5072708;28;20021;-74
2021/11/21 05:42:58;;;;;;;20.30;12.00;;;8.00;94.60;;;;;;5076564;28;20017;-74
2021/11/21 05:45:24;;;;;;;23.25;12.57;;;8.00;94.60;;;;;;5075203;28;20055;-74
2021/11/21 05:47:50;;;;;;;25.73;13.90;;;8.10;94.60;;;;;;5076749;28;20031;-74
2021/11/21 05:50:16;;;;;;;25.40;12.50;;;8.10;94.80;;;;;;5078770;28;20021;-74
2021/11/21 05:52:43;;;;;;;25.23;12.57;;;8.10;95.00;;;;;;5080144;28;20096;-74
2021/11/21 05:55:10;;;;;;;22.92;11.25;;;8.10;95.00;;;;;;5079800;28;20047;-74
2021/11/21 05:57:36;;;;;;;21.85;12.30;;;8.10;95.10;;;;;;5080202;28;20021;-74
2021/11/21 06:00:04;;;;;;;22.30;11.55;;;8.10;95.10;;;;;;5079679;28;20021;-74
2021/11/21 06:02:30;;;;;;;26.02;13.80;;;8.10;95.20;;;;;;5080041;28;20043;-74
2021/11/21 06:04:56;;;;;;;18.23;10.27;;;8.20;95.40;;;;;;5079879;28;20024;-74
2021/11/21 06:07:21;;;;;;;19.50;10.45;;;8.10;95.40;;;;;;5079950;28;20502;-74
2021/11/21 06:09:47;;;;;;;19.10;10.60;;;8.10;94.90;;;;;;5079657;28;20103;-74
2021/11/21 06:12:13;;;;;;;18.98;11.57;;;8.20;95.00;;;;;;5078574;28;20025;-74
2021/11/21 06:14:39;;;;;;;20.05;11.32;;;8.20;95.00;;;;;;5079282;28;20052;-74
2021/11/21 06:17:05;;;;;;;22.70;10.93;;;8.20;95.00;;;;;;5079794;28;20012;-74
2021/11/21 06:19:30;;;;;;;20.73;10.23;;;8.20;95.00;;;;;;5079590;28;20028;-74
2021/11/21 06:21:56;;;;;;;23.48;11.55;;;8.20;95.10;;;;;;5079706;28;20028;-74
2021/11/21 06:24:22;;;;;;;24.17;11.73;;;8.20;95.20;;;;;;5079522;28;20487;-74
2021/11/21 06:26:48;;;;;;;20.45;11.15;;;8.20;95.30;;;;;;5078327;28;20017;-74
2021/11/21 06:29:14;;;;;;;21.83;12.02;;;8.20;95.40;;;;;;5079297;28;20025;-74
2021/11/21 06:31:40;;;;;;;22.88;12.13;;;8.20;95.30;;;;;;5079624;28;20042;-74
2021/11/21 06:34:06;;;;;;;24.85;12.25;;;8.20;95.40;;;;;;5079296;28;20032;-74
2021/11/21 06:36:32;;;;;;;25.15;12.13;;;8.20;95.40;;;;;;5079112;28;20504;-74
2021/11/21 06:38:57;;;;;;;22.33;11.68;;;8.10;95.30;;;;;;5065951;28;20056;-74
2021/11/21 06:41:23;;;;;;;21.15;11.30;;;8.10;95.20;;;;;;5079366;28;20024;-74
2021/11/21 06:43:49;;;;;;;23.20;11.73;;;8.00;95.10;;;;;;5078909;28;20016;-74
2021/11/21 06:46:15;;;;;;;20.25;10.30;;;8.00;95.10;;;;;;5079237;28;20024;-74
2021/11/21 06:48:42;;;;;;;19.80;10.73;;;8.00;95.10;;;;;;5079102;28;20028;-74
2021/11/21 06:51:08;;;;;;;21.50;11.30;;;8.00;95.00;;;;;;5079146;28;20021;-74
2021/11/21 06:53:35;;;;;;;19.67;11.02;;;8.00;94.90;;;;;;5077674;28;20033;-74
2021/11/21 06:56:01;;;;;;;19.88;10.95;;;8.00;94.80;;;;;;5077643;28;20115;-74
2021/11/21 06:58:27;;;;;;;18.27;9.95;;;8.00;94.50;;;;;;5078612;28;20090;-74
2021/11/21 07:00:53;;;;;;;17.55;9.50;;;7.90;94.20;;;;;;5078819;28;20020;-74
2021/11/21 07:03:19;;;;;;;16.95;9.00;;;7.90;93.90;;;;;;5078732;28;20035;-74
2021/11/21 07:05:45;;;;;;;18.95;9.70;;;7.90;93.70;;;;;;5078918;28;20391;-74
2021/11/21 07:08:11;;;;;;;19.48;9.30;;;7.90;93.50;;;;;;5078831;28;20086;-74
2021/11/21 07:10:37;;;;;;;19.10;9.88;;;7.90;93.30;;;;;;5077527;28;20020;-74
2021/11/21 07:13:04;;;;;;;15.60;9.88;;;7.90;93.20;;;;;;5078143;28;20070;-74
2021/11/21 07:15:31;;;;;;;15.80;7.82;;;7.90;93.00;;;;;;5078734;28;20032;-74
2021/11/21 07:17:57;;;;;;;18.92;10.25;;;7.80;92.80;;;;;;5078430;28;20028;-74
2021/11/21 07:20:22;;;;;;;25.38;16.00;;;7.80;92.90;;;;;;5078592;28;20025;-74
2021/11/21 07:22:52;;;;;;;34.65;20.75;;;7.70;92.90;;;;;;5078226;28;20032;-75
2021/11/21 07:25:20;;;;;;;27.33;19.05;;;7.70;93.00;;;;;;5078246;28;20020;-74
2021/11/21 07:27:47;;;;;;;28.77;17.75;;;7.60;93.20;;;;;;5078228;28;20479;-74
2021/11/21 07:30:16;;;;;;;23.35;15.23;;;7.60;93.60;;;;;;5078208;28;20036;-74
2021/11/21 07:32:42;;;;;;;27.20;14.80;;;7.50;93.80;;;;;;5078408;28;20471;-75
2021/11/21 07:35:09;;;;;;;24.30;15.45;;;7.50;93.80;;;;;;5078059;28;20027;-73
2021/11/21 07:37:35;;;;;;;33.10;19.02;;;7.50;93.60;;;;;;5071742;28;20059;-73
2021/11/21 07:40:01;;;;;;;31.90;19.08;;;7.40;93.70;;;;;;5070969;28;20111;-75
2021/11/21 07:42:27;;;;;;;28.33;16.60;;;7.40;93.80;;;;;;5076665;28;20028;-73
2021/11/21 07:44:53;;;;;;;33.38;20.55;;;7.40;93.60;;;;;;5077713;28;20016;-74
2021/11/21 07:47:19;;;;;;;33.75;18.20;;;7.40;93.50;;;;;;5077881;28;20024;-73
2021/11/21 07:49:45;;;;;;;27.23;15.20;;;7.40;94.00;;;;;;5077760;28;20035;-76
2021/11/21 07:52:11;;;;;;;27.23;14.55;;;7.40;94.20;;;;;;5078321;28;20511;-74
2021/11/21 07:54:37;;;;;;;35.55;18.08;;;7.40;94.50;;;;;;5076018;28;20021;-76
2021/11/21 07:57:03;;;;;;;42.83;21.85;;;7.40;94.50;;;;;;5075853;28;20033;-77
2021/11/21 07:59:29;;;;;;;37.30;20.25;;;7.50;94.80;;;;;;5076059;28;20020;-76
2021/11/21 08:01:54;;;;;;;29.95;18.08;;;7.60;94.70;;;;;;5076716;28;20035;-80
2021/11/21 08:04:20;;;;;;;29.65;18.48;;;7.70;94.70;;;;;;5077521;28;20111;-80
2021/11/21 08:06:46;;;;;;;30.60;19.33;;;7.70;94.50;;;;;;5075394;28;20028;-81
2021/11/21 08:09:12;;;;;;;32.92;22.48;;;7.80;94.40;;;;;;5074263;28;20085;-80
2021/11/21 08:11:38;;;;;;;31.30;21.52;;;7.90;94.30;;;;;;5071702;28;20052;-81
2021/11/21 08:14:04;;;;;;;28.75;17.60;;;8.00;94.60;;;;;;5076893;28;20146;-78
2021/11/21 08:16:30;;;;;;;24.48;13.07;;;8.10;94.90;;;;;;5074593;28;20060;-81
2021/11/21 08:18:55;;;;;;;19.33;11.70;;;8.10;95.10;;;;;;5076221;28;20491;-81
2021/11/21 08:21:21;;;;;;;22.35;12.15;;;8.20;95.30;;;;;;5076166;28;20037;-84
2021/11/21 08:23:47;;;;;;;26.33;13.85;;;8.30;95.20;;;;;;5077327;28;20020;-83
2021/11/21 08:26:13;;;;;;;19.20;12.20;;;8.20;95.00;;;;;;5076603;28;20491;-80
2021/11/21 08:28:39;;;;;;;19.70;12.38;;;8.20;94.80;;;;;;5075823;28;20143;-80
2021/11/21 08:31:07;;;;;;;25.30;15.65;;;8.30;94.60;;;;;;5075673;28;20557;-74
2021/11/21 08:33:32;;;;;;;32.45;18.48;;;8.30;94.60;;;;;;5077079;28;20027;-82
2021/11/21 08:35:58;;;;;;;26.48;15.73;;;8.40;95.20;;;;;;5076081;28;20528;-89
2021/11/21 08:38:24;;;;;;;24.33;14.88;;;8.60;95.70;;;;;;5075548;28;20045;-78
2021/11/21 08:40:50;;;;;;;25.67;13.07;;;8.70;95.90;;;;;;5076116;28;20024;-77
2021/11/21 08:43:16;;;;;;;20.40;12.63;;;9.00;96.10;;;;;;5077037;28;20027;-81
2021/11/21 08:45:42;;;;;;;20.70;10.98;;;9.10;96.10;;;;;;5076797;28;20032;-75
2021/11/21 08:48:08;;;;;;;21.75;11.80;;;9.20;95.90;;;;;;5076129;28;20024;-81
2021/11/21 08:50:34;;;;;;;20.90;12.18;;;9.30;95.70;;;;;;5075034;28;20028;-82
2021/11/21 08:53:00;;;;;;;21.77;11.95;;;9.30;95.50;;;;;;5073774;28;20021;-82
2021/11/21 08:55:26;;;;;;;19.27;11.32;;;9.50;95.50;;;;;;5077084;28;20116;-76
2021/11/21 08:57:52;;;;;;;21.83;12.00;;;9.60;95.40;;;;;;5075736;28;20017;-79
2021/11/21 09:00:19;;;;;;;23.02;12.80;;;9.70;95.30;;;;;;5076334;28;20515;-81
2021/11/21 09:02:45;;;;;;;22.52;12.40;;;9.90;95.20;;;;;;5076935;28;20035;-86
2021/11/21 09:05:11;;;;;;;24.77;13.32;;;9.90;95.10;;;;;;5075535;28;20035;-81
2021/11/21 09:07:40;;;;;;;22.50;12.63;;;10.00;95.00;;;;;;5077217;28;20028;-79
2021/11/21 09:10:09;;;;;;;21.38;12.70;;;10.00;94.90;;;;;;5075208;28;20032;-77
2021/11/21 09:12:35;;;;;;;24.48;13.63;;;10.00;94.80;;;;;;5091382;28;20471;-78
2021/11/21 09:15:01;;;;;;;31.27;21.23;;;10.00;94.70;;;;;;5076085;28;20089;-77
2021/11/21 09:17:27;;;;;;;28.50;17.98;;;10.00;94.60;;;;;;5076895;28;20017;-78
2021/11/21 09:19:53;;;;;;;53.72;31.73;;;10.00;94.60;;;;;;5076239;28;20020;-78
2021/11/21 09:22:19;;;;;;;49.22;30.35;;;9.90;94.50;;;;;;5076799;28;20021;-73
2021/11/21 09:24:44;;;;;;;33.17;22.00;;;9.90;94.40;;;;;;5076844;28;20048;-78
2021/11/21 09:27:14;;;;;;;34.50;22.38;;;9.90;94.50;;;;;;5079836;28;20029;-80
2021/11/21 09:29:44;;;;;;;31.63;18.20;;;10.00;94.50;;;;;;5078948;28;20024;-77
2021/11/21 09:32:11;;;;;;;28.10;18.92;;;10.00;94.60;;;;;;5080247;28;20020;-79
2021/11/21 09:34:38;;;;;;;32.28;16.85;;;10.00;94.60;;;;;;5078939;28;20036;-76
2021/11/21 09:37:05;;;;;;;26.42;15.68;;;10.00;94.70;;;;;;5073958;28;20063;-75
2021/11/21 09:39:32;;;;;;;23.40;14.38;;;10.00;94.80;;;;;;5069248;28;20498;-75
2021/11/21 09:41:59;;;;;;;25.30;13.70;;;10.10;94.80;;;;;;5078275;28;20028;-74
2021/11/21 09:44:25;;;;;;;25.88;14.75;;;10.10;94.80;;;;;;5077643;28;20033;-73
2021/11/21 09:46:54;;;;;;;21.02;12.50;;;10.10;94.90;;;;;;5076958;28;20441;-74
2021/11/21 09:49:21;;;;;;;23.85;12.77;;;10.10;94.90;;;;;;5078419;28;20025;-74
2021/11/21 09:51:47;;;;;;;22.33;13.00;;;10.20;95.00;;;;;;5078898;28;20052;-75
2021/11/21 09:54:18;;;;;;;25.15;14.13;;;10.20;95.00;;;;;;5079995;28;20035;-75
2021/11/21 09:56:45;;;;;;;22.63;13.50;;;10.20;95.10;;;;;;5078267;28;20501;-74
2021/11/21 09:59:12;;;;;;;28.05;16.30;;;10.20;95.00;;;;;;5079763;28;20070;-74
2021/11/21 10:01:43;;;;;;;32.88;17.38;;;10.20;95.20;;;;;;5078361;28;20497;-74
2021/11/21 10:04:11;;;;;;;27.88;15.10;;;10.20;95.20;;;;;;5076902;28;20474;-73
2021/11/21 10:06:45;;;;;;;21.70;12.65;;;10.30;95.30;;;;;;5077014;28;20074;-75
2021/11/21 10:09:18;;;;;;;23.13;11.73;;;10.40;95.40;;;;;;5078399;28;20063;-78
2021/11/21 10:11:58;;;;;;;20.40;11.20;;;10.50;95.50;;;;;;5072798;28;20471;-79
2021/11/21 10:14:23;;;;;;;20.13;12.07;;;10.50;95.40;;;;;;5077268;28;20110;-75
2021/11/21 10:16:49;;;;;;;21.25;13.00;;;10.50;95.30;;;;;;5078710;28;20028;-79
2021/11/21 10:19:17;;;;;;;21.92;14.60;;;10.60;95.30;;;;;;5078283;28;20158;-75
2021/11/21 10:21:46;;;;;;;21.42;12.43;;;10.60;95.20;;;;;;5078395;28;20035;-74
2021/11/21 10:24:14;;;;;;;19.98;11.98;;;10.60;95.10;;;;;;5078016;28;20099;-74
2021/11/21 10:26:42;;;;;;;18.88;11.57;;;10.60;94.90;;;;;;5077561;28;20037;-75
2021/11/21 10:29:32;;;;;;;16.60;10.43;;;10.60;94.70;;;;;;5074680;28;20025;-75
2021/11/21 10:31:58;;;;;;;15.38;10.20;;;10.50;94.40;;;;;;5073471;28;20074;-74
2021/11/21 10:34:24;;;;;;;16.13;9.73;;;10.50;94.30;;;;;;5077800;28;20029;-74
2021/11/21 10:36:50;;;;;;;16.10;9.95;;;10.40;94.20;;;;;;5076663;28;20051;-74
2021/11/21 10:39:20;;;;;;;16.88;11.20;;;10.40;94.10;;;;;;5064081;28;20021;-75
2021/11/21 10:41:51;;;;;;;23.58;16.52;;;10.40;94.00;;;;;;5079274;28;20016;-75
2021/11/21 10:44:22;;;;;;;18.98;10.80;;;10.40;94.20;;;;;;5077849;28;20093;-73
2021/11/21 10:46:53;;;;;;;9.80;6.75;;;10.40;94.20;;;;;;5078058;28;20067;-74
2021/11/21 10:49:21;;;;;;;7.65;3.95;;;10.50;94.20;;;;;;5077059;28;20025;-78
2021/11/21 10:51:50;;;;;;;8.52;4.47;;;10.40;94.00;;;;;;5079015;28;20028;-73
2021/11/21 10:54:21;;;;;;;7.53;4.70;;;10.40;94.00;;;;;;5073333;28;20031;-72
2021/11/21 10:56:53;;;;;;;24.17;10.93;;;10.40;93.80;;;;;;5075842;28;20035;-76
2021/11/21 10:59:48;;;;;;;29.37;17.43;;;10.30;93.70;;;;;;5078643;28;20047;-72
2021/11/21 11:02:24;;;;;;;34.67;16.98;;;10.30;93.50;;;;;;5068195;28;20349;-72
2021/11/21 11:05:12;;;;;;;36.45;18.00;;;10.30;93.40;;;;;;5078052;28;20067;-73
2021/11/21 11:07:50;;;;;;;26.00;11.65;;;10.30;93.30;;;;;;5076340;28;20387;-72
2021/11/21 11:10:25;;;;;;;12.50;4.72;;;10.20;93.20;;;;;;5076620;28;20471;-76
2021/11/21 11:13:03;;;;;;;8.85;3.50;;;10.10;92.90;;;;;;5078294;28;20094;-73
2021/11/21 11:15:32;;;;;;;9.70;4.13;;;10.10;92.90;;;;;;5077629;28;20614;-73
2021/11/21 11:17:58;;;;;;;12.27;4.07;;;10.10;92.90;;;;;;5078401;28;20031;-73
2021/11/21 11:20:25;;;;;;;8.75;3.28;;;10.10;93.00;;;;;;5076163;28;20032;-73
2021/11/21 11:22:51;;;;;;;12.00;4.90;;;10.20;92.90;;;;;;5076630;28;20017;-72
2021/11/21 11:25:32;;;;;;;11.18;5.93;;;10.20;92.70;;;;;;5090810;28;20028;-72
2021/11/21 11:28:19;;;;;;;20.00;9.95;;;10.20;92.40;;;;;;5077755;28;20032;-73
2021/11/21 11:30:46;;;;;;;25.30;12.13;;;10.10;92.20;;;;;;5076074;28;20028;-73
2021/11/21 11:33:15;;;;;;;17.77;9.25;;;10.10;92.10;;;;;;5075175;28;20024;-73
2021/11/21 11:35:47;;;;;;;19.33;9.73;;;10.00;92.00;;;;;;5076952;28;20069;-73
2021/11/21 11:38:20;;;;;;;13.73;8.93;;;10.00;92.00;;;;;;5074538;28;20491;-75
2021/11/21 11:40:49;;;;;;;10.57;4.90;;;10.00;92.00;;;;;;5074707;28;20522;-74
2021/11/21 11:43:15;;;;;;;8.93;4.93;;;9.90;91.90;;;;;;5075639;28;20490;-73
2021/11/21 11:45:49;;;;;;;12.07;6.03;;;9.90;91.90;;;;;;5075990;28;20021;-74
2021/11/21 11:48:33;;;;;;;9.52;5.10;;;9.90;91.90;;;;;;5075615;28;20038;-73
2021/11/21 11:51:04;;;;;;;11.27;5.40;;;9.90;92.00;;;;;;5075776;28;20032;-71
2021/11/21 11:53:38;;;;;;;13.15;4.47;;;9.90;92.00;;;;;;5075427;28;20032;-72
2021/11/21 11:56:10;;;;;;;8.40;3.33;;;9.90;92.00;;;;;;5072045;28;20028;-72
2021/11/21 11:58:48;;;;;;;10.73;3.72;;;9.90;92.10;;;;;;5077550;28;20158;-72
2021/11/21 12:01:40;;;;;;;22.02;10.23;;;9.90;92.10;;;;;;5075304;28;20092;-74
2021/11/21 12:04:12;;;;;;;13.90;7.40;;;9.90;92.10;;;;;;5076289;28;20027;-72
2021/11/21 12:06:50;;;;;;;83.88;36.65;;;9.90;92.10;;;;;;5076784;28;20063;-72
2021/11/21 12:09:16;;;;;;;30.88;14.05;;;10.00;92.10;;;;;;5077501;28;20542;-72
2021/11/21 12:12:06;;;;;;;21.08;9.35;;;10.00;92.10;;;;;;5075446;28;20121;-72
2021/11/21 12:14:35;;;;;;;24.38;10.68;;;10.00;92.00;;;;;;5074515;28;20028;-72
2021/11/21 12:17:04;;;;;;;21.52;9.85;;;10.00;92.00;;;;;;5076533;28;20029;-75
2021/11/21 12:19:38;;;;;;;29.38;15.38;;;10.00;92.00;;;;;;5077369;28;20497;-73
2021/11/21 12:22:28;;;;;;;37.65;18.67;;;10.00;92.00;;;;;;5076313;28;20060;-73
2021/11/21 12:24:58;;;;;;;29.30;14.45;;;10.00;92.00;;;;;;5066653;28;20493;-73
2021/11/21 12:27:30;;;;;;;24.88;13.93;;;10.00;92.00;;;;;;5074932;28;20036;-74
2021/11/21 12:30:13;;;;;;;26.77;15.27;;;10.10;92.00;;;;;;5076110;28;20506;-73
2021/11/21 12:32:59;;;;;;;;;;;10.00;91.90;;;;;;5075124;28;20048;-72
2021/11/21 12:35:41;;;;;;;15.45;6.88;;;10.00;91.90;;;;;;5076239;28;19912;-73
2021/11/21 12:38:35;;;;;;;11.32;4.30;;;10.10;92.00;;;;;;5066220;28;20052;-73